Time;durP1;ratioP1;P1;durP2;ratioP2;P2;SDS_P1;SDS_P2;PMS_P1;PMS_P2;Temp;Humidity;BMP_temperature;BMP_pressure;BME280_temperature;BME280_humidity;BME280_pressure;Samples;Min_cycle;Max_cycle;Signal;HPM_P1;HPM_P2
2022/08/08 00:00:52;;;;;;;;;;;;;;;18.86;79.33;99595.03;5117685;27;20030;-80
2022/08/08 00:03:44;;;;;;;;;;;;;;;18.83;79.44;99599.13;5101786;27;19931;-81
2022/08/08 00:06:46;;;;;;;;;;;;;;;18.82;79.59;99592.06;5135067;27;19977;-80
2022/08/08 00:09:17;;;;;;;;;;;;;;;18.77;79.64;99592.91;5031546;28;19981;-81
2022/08/08 00:11:44;;;;;;;;;;;;;;;18.75;80.21;99594.25;5015209;28;19983;-81
2022/08/08 00:14:35;;;;;;;;;;;;;;;18.75;80.20;99588.78;5017835;28;19976;-80
2022/08/08 00:17:23;;;;;;;;;;;;;;;18.73;80.10;99589.06;5017642;28;20459;-80
2022/08/08 00:20:04;;;;;;;;;;;;;;;18.75;80.15;99591.53;4998447;28;19928;-81
2022/08/08 00:22:47;;;;;;;;;;;;;;;18.76;80.04;99595.91;5031097;28;19929;-80
2022/08/08 00:25:15;;;;;;;;;;;;;;;18.82;79.83;99592.88;5014997;28;19967;-80
2022/08/08 00:27:42;;;;;;;;;;;;;;;18.83;79.49;99599.13;5014844;28;19979;-81
2022/08/08 00:30:10;;;;;;;;;;;;;;;18.82;79.60;99603.00;4998471;28;19929;-81
2022/08/08 00:32:45;;;;;;;;;;;;;;;18.79;80.15;99600.84;5015746;28;19933;-79
2022/08/08 00:35:19;;;;;;;;;;;;;;;18.74;80.68;99611.78;5014484;28;19932;-81
2022/08/08 00:37:55;;;;;;;;;;;;;;;18.71;81.08;99615.06;5015844;28;19928;-81
2022/08/08 00:40:28;;;;;;;;;;;;;;;18.64;81.54;99618.13;5034191;28;20024;-82
2022/08/08 00:43:20;;;;;;;;;;;;;;;18.61;81.77;99608.56;5040151;28;19941;-80
2022/08/08 00:45:55;;;;;;;;;;;;;;;18.58;82.43;99613.75;5124061;27;19945;-80
2022/08/08 00:48:24;;;;;;;;;;;;;;;18.56;82.53;99610.50;5128652;27;20394;-80
2022/08/08 00:51:00;;;;;;;;;;;;;;;18.54;82.54;99612.72;5099835;27;19928;-80
2022/08/08 00:53:45;;;;;;;;;;;;;;;18.50;82.78;99611.63;5114785;27;19927;-80
2022/08/08 00:56:52;;;;;;;;;;;;;;;18.49;82.97;99612.75;5110534;27;20028;-81
2022/08/08 00:59:44;;;;;;;;;;;;;;;18.48;83.44;99609.16;5115793;27;20297;-81
2022/08/08 01:02:37;;;;;;;;;;;;;;;18.45;83.44;99606.19;5099752;27;20165;-82
2022/08/08 01:05:37;;;;;;;;;;;;;;;18.42;83.41;99611.13;5115120;27;20376;-81
2022/08/08 01:08:25;;;;;;;;;;;;;;;18.45;83.29;99617.94;5115406;27;20080;-81
2022/08/08 01:11:02;;;;;;;;;;;;;;;18.40;83.12;99621.50;5115388;27;19927;-80
2022/08/08 01:13:41;;;;;;;;;;;;;;;18.38;83.54;99609.22;5098289;27;19980;-81
2022/08/08 01:16:13;;;;;;;;;;;;;;;18.31;83.86;99609.56;5132321;27;20026;-81
2022/08/08 01:19:05;;;;;;;;;;;;;;;18.27;84.08;99613.94;5115416;27;20425;-81
2022/08/08 01:21:55;;;;;;;;;;;;;;;18.22;84.26;99613.16;5101319;27;20287;-80
2022/08/08 01:24:59;;;;;;;;;;;;;;;18.14;84.78;99606.34;5108782;27;20385;-82
2022/08/08 01:27:29;;;;;;;;;;;;;;;18.05;85.02;99608.81;5123254;27;19933;-82
2022/08/08 01:30:27;;;;;;;;;;;;;;;17.96;85.60;99605.06;5114407;27;19938;-81
2022/08/08 01:33:00;;;;;;;;;;;;;;;17.90;86.19;99598.81;5123286;27;19927;-80
2022/08/08 01:35:45;;;;;;;;;;;;;;;17.79;86.77;99597.16;5116341;27;19950;-80
2022/08/08 01:38:17;;;;;;;;;;;;;;;17.74;87.61;99599.91;5119723;27;20460;-82
2022/08/08 01:40:54;;;;;;;;;;;;;;;17.73;88.00;99601.00;5115723;27;20026;-80
2022/08/08 01:43:30;;;;;;;;;;;;;;;17.77;88.28;99600.19;5107231;27;19927;-82
2022/08/08 01:46:16;;;;;;;;;;;;;;;17.84;87.86;99604.53;5116389;27;20011;-82
2022/08/08 01:48:50;;;;;;;;;;;;;;;17.87;87.86;99610.25;5116873;27;20290;-82
2022/08/08 01:51:23;;;;;;;;;;;;;;;17.91;87.75;99600.41;5135256;27;19926;-83
2022/08/08 01:54:29;;;;;;;;;;;;;;;17.96;87.75;99608.59;5150058;27;19927;-81
2022/08/08 01:57:35;;;;;;;;;;;;;;;17.98;87.79;99603.69;5099336;27;20307;-80
2022/08/08 02:00:35;;;;;;;;;;;;;;;17.95;87.95;99598.78;5133251;27;19927;-81
2022/08/08 02:03:10;;;;;;;;;;;;;;;17.93;88.19;99597.44;5097655;27;19934;-81
2022/08/08 02:06:07;;;;;;;;;;;;;;;17.89;88.33;99597.16;5131683;27;20023;-81
2022/08/08 02:08:59;;;;;;;;;;;;;;;17.83;88.54;99592.00;5117031;27;19931;-80
2022/08/08 02:11:38;;;;;;;;;;;;;;;17.77;88.94;99589.25;5108050;27;20362;-81
2022/08/08 02:14:41;;;;;;;;;;;;;;;17.80;88.99;99600.72;5115625;27;20025;-80
2022/08/08 02:17:28;;;;;;;;;;;;;;;17.77;89.03;99596.59;5125306;27;19927;-80
2022/08/08 02:20:27;;;;;;;;;;;;;;;17.75;89.22;99596.91;5104851;27;19927;-79
2022/08/08 02:23:21;;;;;;;;;;;;;;;17.70;89.52;99605.09;5135894;27;19931;-81
2022/08/08 02:26:07;;;;;;;;;;;;;;;17.77;89.50;99602.91;5114137;27;19935;-81
2022/08/08 02:28:47;;;;;;;;;;;;;;;17.74;89.66;99606.16;5097850;27;20425;-81
2022/08/08 02:31:34;;;;;;;;;;;;;;;17.79;89.52;99605.34;5112144;27;20361;-82
2022/08/08 02:34:40;;;;;;;;;;;;;;;17.77;89.45;99613.81;5117027;27;19927;-82
2022/08/08 02:37:58;;;;;;;;;;;;;;;17.69;89.97;99610.81;5125033;28;19931;-82
2022/08/08 02:40:38;;;;;;;;;;;;;;;17.73;90.19;99607.28;5028582;28;20315;-81
2022/08/08 02:43:08;;;;;;;;;;;;;;;17.73;90.11;99620.13;4996516;28;20352;-82
2022/08/08 02:45:58;;;;;;;;;;;;;;;17.83;90.13;99620.13;4992289;28;19971;-82
2022/08/08 02:48:39;;;;;;;;;;;;;;;17.86;89.78;99616.00;5016367;28;19964;-81
2022/08/08 02:51:14;;;;;;;;;;;;;;;17.84;89.55;99627.19;5016639;28;19939;-80
2022/08/08 02:54:14;;;;;;;;;;;;;;;17.85;89.46;99633.47;5016641;28;19933;-83
2022/08/08 02:57:00;;;;;;;;;;;;;;;17.92;89.34;99631.28;5016285;28;20020;-80
2022/08/08 02:59:50;;;;;;;;;;;;;;;18.02;89.28;99630.44;5016349;28;19956;-82
2022/08/08 03:02:41;;;;;;;;;;;;;;;18.07;88.66;99646.78;5016227;28;20384;-81
2022/08/08 03:05:24;;;;;;;;;;;;;;;18.04;88.56;99652.81;5016177;28;19936;-82
2022/08/08 03:08:17;;;;;;;;;;;;;;;18.07;88.46;99655.81;5016362;28;19968;-82
2022/08/08 03:11:04;;;;;;;;;;;;;;;18.05;88.17;99652.53;5013807;28;19972;-84
2022/08/08 03:14:09;;;;;;;;;;;;;;;17.84;87.68;99659.97;5016178;28;19929;-81
2022/08/08 03:17:26;;;;;;;;;;;;;;;17.82;88.10;99653.13;5034377;28;19939;-82
2022/08/08 03:20:10;;;;;;;;;;;;;;;17.87;87.97;99656.66;5076926;28;19928;-82
2022/08/08 03:22:46;;;;;;;;;;;;;;;17.96;87.95;99662.41;5093665;28;19932;-80
2022/08/08 03:25:21;;;;;;;;;;;;;;;17.94;87.50;99668.13;5095823;27;20443;-81
2022/08/08 03:28:01;;;;;;;;;;;;;;;17.85;87.41;99663.50;5076789;28;19934;-81
2022/08/08 03:30:34;;;;;;;;;;;;;;;17.74;87.54;99673.59;5093282;28;19928;-81
2022/08/08 03:33:17;;;;;;;;;;;;;;;17.69;87.80;99662.69;5076735;28;20306;-80
2022/08/08 03:36:05;;;;;;;;;;;;;;;17.68;88.07;99675.53;5121127;27;19936;-81
2022/08/08 03:38:37;;;;;;;;;;;;;;;17.68;87.96;99680.19;5106693;28;19934;-82
2022/08/08 03:41:30;;;;;;;;;;;;;;;17.71;87.80;99672.25;5118051;27;19989;-80
2022/08/08 03:44:22;;;;;;;;;;;;;;;17.72;87.52;99682.09;5136543;27;19927;-81
2022/08/08 03:46:53;;;;;;;;;;;;;;;17.73;87.43;99697.34;5137622;27;19948;-81
2022/08/08 03:49:24;;;;;;;;;;;;;;;17.83;87.36;99684.81;5136998;27;19980;-81
2022/08/08 03:52:11;;;;;;;;;;;;;;;17.83;86.96;99687.56;5135442;27;19927;-81
2022/08/08 03:54:42;;;;;;;;;;;;;;;17.84;86.55;99683.72;5115851;27;20398;-80
2022/08/08 03:57:30;;;;;;;;;;;;;;;17.91;86.62;99695.19;5116556;27;19928;-81
2022/08/08 04:00:17;;;;;;;;;;;;;;;17.97;86.38;99694.06;5134071;27;19939;-81
2022/08/08 04:02:54;;;;;;;;;;;;;;;18.00;85.84;99698.16;5102469;27;19931;-81
2022/08/08 04:05:30;;;;;;;;;;;;;;;18.01;85.32;99703.34;5116256;27;19931;-80
2022/08/08 04:08:04;;;;;;;;;;;;;;;17.97;85.14;99702.25;5116494;27;19999;-81
2022/08/08 04:10:33;;;;;;;;;;;;;;;17.98;84.82;99702.00;5114657;27;20026;-82
2022/08/08 04:13:04;;;;;;;;;;;;;;;18.04;84.69;99701.97;5115402;27;20041;-81
2022/08/08 04:15:49;;;;;;;;;;;;;;;18.21;83.88;99704.41;5104007;27;19927;-81
2022/08/08 04:18:34;;;;;;;;;;;;;;;18.14;83.25;99701.94;5121221;27;19928;-81
2022/08/08 04:21:15;;;;;;;;;;;;;;;18.20;83.02;99700.81;5086054;27;20010;-82
2022/08/08 04:23:52;;;;;;;;;;;;;;;18.25;82.33;99710.94;5120389;27;19927;-82
2022/08/08 04:26:39;;;;;;;;;;;;;;;18.12;82.19;99710.41;5125743;27;20030;-81
2022/08/08 04:29:25;;;;;;;;;;;;;;;18.14;82.65;99713.69;5132937;27;19927;-80
2022/08/08 04:31:52;;;;;;;;;;;;;;;18.03;82.54;99712.09;5110306;27;19973;-81
2022/08/08 04:34:28;;;;;;;;;;;;;;;17.87;82.75;99715.94;5099488;27;20373;-81
2022/08/08 04:37:20;;;;;;;;;;;;;;;17.67;83.36;99719.47;5110792;27;19927;-79
2022/08/08 04:39:58;;;;;;;;;;;;;;;17.76;83.51;99724.09;5123057;27;19931;-79
2022/08/08 04:42:36;;;;;;;;;;;;;;;17.90;83.19;99723.56;5127772;27;19966;-79
2022/08/08 04:45:24;;;;;;;;;;;;;;;18.09;82.41;99724.63;5119963;27;20334;-81
2022/08/08 04:47:53;;;;;;;;;;;;;;;18.09;81.29;99729.28;5131624;27;19927;-81
2022/08/08 04:50:20;;;;;;;;;;;;;;;18.21;81.17;99727.06;5136153;27;20031;-81
2022/08/08 04:53:00;;;;;;;;;;;;;;;18.65;80.26;99729.09;5122947;27;19934;-83
2022/08/08 04:55:35;;;;;;;;;;;;;;;18.89;79.20;99723.81;5099578;27;19927;-82
2022/08/08 04:58:23;;;;;;;;;;;;;;;19.17;78.01;99716.00;5132629;27;20045;-82
2022/08/08 05:00:53;;;;;;;;;;;;;;;19.30;77.36;99712.59;5142129;27;19950;-79
2022/08/08 05:03:22;;;;;;;;;;;;;;;19.44;76.43;99724.53;5098178;27;19933;-81
2022/08/08 05:06:09;;;;;;;;;;;;;;;19.45;75.79;99728.91;5114030;27;19928;-81
2022/08/08 05:08:45;;;;;;;;;;;;;;;19.10;75.13;99729.16;5121037;27;19931;-81
2022/08/08 05:11:22;;;;;;;;;;;;;;;18.80;76.03;99733.69;5103455;27;20458;-81
2022/08/08 05:13:57;;;;;;;;;;;;;;;18.56;76.71;99728.03;5126568;27;19937;-80
2022/08/08 05:16:32;;;;;;;;;;;;;;;18.55;77.17;99734.59;5125548;27;19972;-81
2022/08/08 05:19:21;;;;;;;;;;;;;;;18.55;77.02;99740.88;5115009;27;20066;-81
2022/08/08 05:22:09;;;;;;;;;;;;;;;18.63;76.40;99743.06;5123633;27;19934;-81
2022/08/08 05:24:41;;;;;;;;;;;;;;;18.61;76.37;99742.50;5113310;27;19949;-82
2022/08/08 05:27:16;;;;;;;;;;;;;;;18.76;75.72;99740.81;5098067;27;19987;-81
2022/08/08 05:29:49;;;;;;;;;;;;;;;18.93;75.22;99744.00;5123925;27;19927;-80
2022/08/08 05:32:22;;;;;;;;;;;;;;;19.09;74.81;99747.50;5111006;27;19942;-81
2022/08/08 05:34:57;;;;;;;;;;;;;;;19.40;74.49;99739.09;5115039;27;19935;-81
2022/08/08 05:37:31;;;;;;;;;;;;;;;19.64;73.65;99745.44;5097732;27;20313;-81
2022/08/08 05:40:18;;;;;;;;;;;;;;;19.84;73.28;99744.47;5100924;27;19928;-81
2022/08/08 05:43:02;;;;;;;;;;;;;;;19.82;72.03;99741.22;5131406;27;19927;-81
2022/08/08 05:45:51;;;;;;;;;;;;;;;19.58;72.25;99754.81;5114715;27;19934;-82
2022/08/08 05:48:33;;;;;;;;;;;;;;;19.73;72.18;99745.69;5099277;27;20423;-82
2022/08/08 05:51:05;;;;;;;;;;;;;;;19.98;71.65;99750.13;5114197;27;19927;-81
2022/08/08 05:53:45;;;;;;;;;;;;;;;20.15;69.85;99755.16;5114140;27;19935;-81
2022/08/08 05:56:36;;;;;;;;;;;;;;;19.87;70.65;99754.03;5131491;27;20308;-82
2022/08/08 05:59:05;;;;;;;;;;;;;;;19.87;70.93;99754.03;5114069;27;19927;-82
2022/08/08 06:01:40;;;;;;;;;;;;;;;19.94;70.36;99762.75;5098712;27;19972;-81
2022/08/08 06:04:26;;;;;;;;;;;;;;;19.81;70.73;99769.72;5114248;27;19927;-82
2022/08/08 06:06:59;;;;;;;;;;;;;;;19.68;70.95;99773.13;5098214;27;19950;-82
2022/08/08 06:09:32;;;;;;;;;;;;;;;19.62;71.75;99769.56;5097279;27;19934;-82
2022/08/08 06:12:33;;;;;;;;;;;;;;;19.81;71.72;99774.38;5103140;27;19934;-81
2022/08/08 06:15:01;;;;;;;;;;;;;;;19.90;71.38;99775.38;5097814;27;19928;-81
2022/08/08 06:17:35;;;;;;;;;;;;;;;20.16;70.98;99775.97;5113756;27;19927;-82
2022/08/08 06:20:22;;;;;;;;;;;;;;;20.31;70.34;99778.56;5114261;27;20044;-80
2022/08/08 06:22:52;;;;;;;;;;;;;;;20.24;69.94;99775.34;5114063;27;19927;-81
2022/08/08 06:25:28;;;;;;;;;;;;;;;20.33;70.13;99775.50;5114066;28;19980;-82
2022/08/08 06:28:29;;;;;;;;;;;;;;;20.31;69.48;99780.50;5100218;27;19927;-81
2022/08/08 06:30:59;;;;;;;;;;;;;;;20.07;69.54;99785.91;5131295;27;20378;-82
2022/08/08 06:33:31;;;;;;;;;;;;;;;19.96;70.15;99784.38;5114028;28;19928;-81
2022/08/08 06:36:25;;;;;;;;;;;;;;;20.07;70.31;99786.72;5100550;27;20025;-81
2022/08/08 06:38:54;;;;;;;;;;;;;;;20.08;69.75;99788.38;5097673;28;19928;-82
2022/08/08 06:41:21;;;;;;;;;;;;;;;20.09;69.91;99787.25;5097177;28;20474;-82
2022/08/08 06:43:48;;;;;;;;;;;;;;;20.20;69.68;99784.44;5093475;28;19932;-82
2022/08/08 06:46:34;;;;;;;;;;;;;;;20.37;69.41;99790.28;5093366;28;20406;-81
2022/08/08 06:49:06;;;;;;;;;;;;;;;20.58;68.79;99793.63;5094489;28;19978;-81
2022/08/08 06:51:37;;;;;;;;;;;;;;;20.84;68.05;99785.94;5110204;28;19951;-81
2022/08/08 06:54:25;;;;;;;;;;;;;;;21.13;67.04;99791.31;5110149;28;19928;-82
2022/08/08 06:56:52;;;;;;;;;;;;;;;21.41;66.19;99777.78;5076727;28;19971;-81
2022/08/08 06:59:20;;;;;;;;;;;;;;;21.40;65.26;99790.69;5110212;28;19928;-81
2022/08/08 07:01:57;;;;;;;;;;;;;;;21.53;65.51;99793.81;5094068;28;19988;-82
2022/08/08 07:04:55;;;;;;;;;;;;;;;21.65;64.23;99783.19;5065430;28;20012;-81
2022/08/08 07:07:46;;;;;;;;;;;;;;;21.50;64.30;99789.72;5062031;28;19981;-82
2022/08/08 07:10:18;;;;;;;;;;;;;;;21.57;64.82;99792.06;5077465;28;19953;-82
2022/08/08 07:12:53;;;;;;;;;;;;;;;21.60;64.02;99784.06;5110213;28;20051;-81
2022/08/08 07:15:31;;;;;;;;;;;;;;;21.78;63.78;99784.34;5093968;28;19928;-82
2022/08/08 07:18:25;;;;;;;;;;;;;;;21.90;62.94;99792.91;5109718;28;19928;-81
2022/08/08 07:21:05;;;;;;;;;;;;;;;21.68;63.63;99785.31;5110318;28;20454;-81
2022/08/08 07:24:04;;;;;;;;;;;;;;;21.84;64.03;99794.94;5109968;28;20036;-81
2022/08/08 07:26:45;;;;;;;;;;;;;;;21.53;63.83;99802.03;5094845;28;20047;-81
2022/08/08 07:29:16;;;;;;;;;;;;;;;21.18;64.03;99796.72;5079820;28;19965;-82
2022/08/08 07:32:05;;;;;;;;;;;;;;;20.87;65.29;99803.75;5082833;28;20029;-82
2022/08/08 07:34:34;;;;;;;;;;;;;;;20.96;65.70;99796.47;5130429;27;19928;-82
2022/08/08 07:37:14;;;;;;;;;;;;;;;21.11;65.35;99807.25;5113911;28;19934;-82
2022/08/08 07:39:43;;;;;;;;;;;;;;;21.18;64.27;99801.41;5097136;28;20468;-81
2022/08/08 07:42:29;;;;;;;;;;;;;;;21.28;64.47;99803.19;5113527;28;19934;-82
2022/08/08 07:45:02;;;;;;;;;;;;;;;21.76;63.54;99795.63;5113736;28;19942;-81
2022/08/08 07:47:31;;;;;;;;;;;;;;;22.21;62.15;99792.44;5113695;28;19981;-81
2022/08/08 07:50:07;;;;;;;;;;;;;;;22.29;61.00;99799.97;5113780;28;19996;-81
2022/08/08 07:52:37;;;;;;;;;;;;;;;22.49;60.92;99790.53;5113117;28;20389;-82
2022/08/08 07:55:12;;;;;;;;;;;;;;;22.56;59.50;99801.94;5128099;27;19963;-81
2022/08/08 07:57:53;;;;;;;;;;;;;;;22.36;60.64;99800.41;5125440;27;20034;-82
2022/08/08 08:00:25;;;;;;;;;;;;;;;22.41;60.50;99788.50;5134101;27;19988;-82
2022/08/08 08:03:09;;;;;;;;;;;;;;;22.68;60.34;99793.16;5097148;27;20407;-82
2022/08/08 08:05:53;;;;;;;;;;;;;;;23.04;59.70;99797.94;5113178;28;19981;-82
2022/08/08 08:08:27;;;;;;;;;;;;;;;23.32;59.13;99794.03;5068680;27;19927;-82
2022/08/08 08:10:56;;;;;;;;;;;;;;;23.27;57.25;99801.56;5114874;27;19928;-83
2022/08/08 08:13:25;;;;;;;;;;;;;;;23.28;58.18;99806.78;5122663;27;20026;-83
2022/08/08 08:16:13;;;;;;;;;;;;;;;23.03;58.33;99801.84;5122135;27;19961;-82
2022/08/08 08:19:01;;;;;;;;;;;;;;;22.69;58.86;99803.88;5118321;27;20018;-82
2022/08/08 08:21:36;;;;;;;;;;;;;;;22.73;59.54;99809.56;5096678;28;19932;-81
2022/08/08 08:24:34;;;;;;;;;;;;;;;22.93;59.05;99800.09;5112669;28;19977;-83
2022/08/08 08:27:04;;;;;;;;;;;;;;;23.01;58.50;99798.56;5110624;27;19972;-82
2022/08/08 08:29:38;;;;;;;;;;;;;;;23.46;57.87;99809.69;5097729;28;19997;-81
2022/08/08 08:32:08;;;;;;;;;;;;;;;24.12;56.18;99810.06;5112615;28;20421;-83
2022/08/08 08:34:59;;;;;;;;;;;;;;;25.22;54.04;99795.44;5112232;27;20344;-83
2022/08/08 08:37:29;;;;;;;;;;;;;;;25.59;53.06;99806.97;5112171;28;20010;-85
2022/08/08 08:39:58;;;;;;;;;;;;;;;25.38;52.18;99801.28;5112445;28;20030;-82
2022/08/08 08:42:45;;;;;;;;;;;;;;;25.23;51.43;99801.75;5121774;27;19928;-84
2022/08/08 08:45:15;;;;;;;;;;;;;;;24.53;52.70;99798.75;5106946;28;19932;-84
2022/08/08 08:47:56;;;;;;;;;;;;;;;24.67;53.51;99797.84;5108911;28;19993;-84
2022/08/08 08:50:32;;;;;;;;;;;;;;;25.16;52.78;99793.09;5109147;27;20309;-84
2022/08/08 08:53:08;;;;;;;;;;;;;;;24.76;52.47;99793.16;5127044;27;19966;-83
2022/08/08 08:56:21;;;;;;;;;;;;;;;23.99;53.80;99795.22;5109301;27;20045;-83
2022/08/08 08:58:55;;;;;;;;;;;;;;;23.89;54.58;99806.50;5108124;28;19935;-83
2022/08/08 09:01:40;;;;;;;;;;;;;;;24.39;53.51;99798.84;5107780;28;19942;-82
2022/08/08 09:04:21;;;;;;;;;;;;;;;24.25;53.34;99789.84;5096012;27;20589;-86
2022/08/08 09:06:57;;;;;;;;;;;;;;;24.89;53.01;99795.00;5115768;27;20657;-85
2022/08/08 09:09:26;;;;;;;;;;;;;;;25.53;52.00;99800.00;5109026;28;19932;-83
2022/08/08 09:12:17;;;;;;;;;;;;;;;24.82;52.35;99805.69;5120100;27;20025;-85
2022/08/08 09:14:46;;;;;;;;;;;;;;;24.58;52.69;99797.81;5121866;27;19931;-85
2022/08/08 09:17:18;;;;;;;;;;;;;;;24.36;53.21;99809.72;5100789;27;19949;-83
2022/08/08 09:20:02;;;;;;;;;;;;;;;25.64;49.55;99803.22;5074994;27;20377;-82
2022/08/08 09:22:50;;;;;;;;;;;;;;;25.46;50.22;99803.22;5108901;27;20390;-81
2022/08/08 09:25:24;;;;;;;;;;;;;;;26.79;48.11;99798.75;5093273;27;20298;-83
2022/08/08 09:28:11;;;;;;;;;;;;;;;28.39;45.84;99802.34;5113495;27;19965;-82
2022/08/08 09:31:05;;;;;;;;;;;;;;;28.87;44.91;99789.66;5110243;27;19931;-84
2022/08/08 09:33:41;;;;;;;;;;;;;;;27.98;45.66;99798.56;5112922;27;21317;-83
2022/08/08 09:36:28;;;;;;;;;;;;;;;27.21;45.75;99798.81;5098859;27;19996;-82
2022/08/08 09:38:58;;;;;;;;;;;;;;;26.49;46.97;99791.53;5111252;27;19974;-85
2022/08/08 09:41:46;;;;;;;;;;;;;;;27.56;45.64;99793.03;4752367;27;10000249;-82
2022/08/08 09:44:49;;;;;;;;;;;;;;;27.37;45.33;99789.91;5107926;28;20317;-82
2022/08/08 09:47:22;;;;;;;;;;;;;;;26.21;47.35;99791.16;5109774;27;19931;-83
2022/08/08 09:50:10;;;;;;;;;;;;;;;25.90;48.48;99790.25;5103014;27;19932;-81
2022/08/08 09:52:40;;;;;;;;;;;;;;;25.81;48.97;99786.63;5116618;27;20007;-83
2022/08/08 09:55:29;;;;;;;;;;;;;;;25.75;49.35;99790.72;5112084;27;19928;-82
2022/08/08 09:58:17;;;;;;;;;;;;;;;25.52;49.46;99785.38;5108560;28;20511;-83
2022/08/08 10:00:58;;;;;;;;;;;;;;;25.33;49.79;99801.44;5108705;28;19938;-87
2022/08/08 10:03:26;;;;;;;;;;;;;;;24.49;51.62;99789.50;5107831;27;19928;-85
2022/08/08 10:05:57;;;;;;;;;;;;;;;24.31;52.47;99791.34;5111896;27;20201;-82
2022/08/08 10:08:25;;;;;;;;;;;;;;;23.97;52.91;99806.53;5114050;27;19972;-84
2022/08/08 10:10:59;;;;;;;;;;;;;;;23.94;53.48;99801.66;5111892;27;19965;-85
2022/08/08 10:13:56;;;;;;;;;;;;;;;24.16;53.29;99805.53;5119904;27;20444;-85
2022/08/08 10:16:23;;;;;;;;;;;;;;;24.02;53.96;99806.41;5119795;27;20081;-84
2022/08/08 10:19:01;;;;;;;;;;;;;;;24.17;53.67;99804.41;5119809;27;20015;-83
2022/08/08 10:21:28;;;;;;;;;;;;;;;23.96;54.29;99817.91;5113621;27;20014;-82
2022/08/08 10:24:02;;;;;;;;;;;;;;;24.01;54.14;99812.25;5115646;27;19931;-85
2022/08/08 10:26:39;;;;;;;;;;;;;;;24.18;54.18;99809.63;5128733;27;19934;-88
2022/08/08 10:29:31;;;;;;;;;;;;;;;24.44;53.69;99806.19;5128750;27;19997;-87
2022/08/08 10:32:31;;;;;;;;;;;;;;;24.64;52.90;99805.63;5129335;27;19927;-88
2022/08/08 10:35:01;;;;;;;;;;;;;;;24.36;52.82;99795.91;5120452;27;19977;-85
2022/08/08 10:37:30;;;;;;;;;;;;;;;23.85;53.49;99806.31;5126235;27;19939;-85
2022/08/08 10:40:10;;;;;;;;;;;;;;;24.04;54.25;99808.88;5128691;27;20370;-82
2022/08/08 10:42:43;;;;;;;;;;;;;;;23.99;53.66;99807.06;5113358;28;19927;-85
2022/08/08 10:45:10;;;;;;;;;;;;;;;23.85;53.83;99799.97;5108039;28;19928;-86
2022/08/08 10:47:42;;;;;;;;;;;;;;;24.14;53.66;99796.78;5113073;28;19927;-84
2022/08/08 10:50:22;;;;;;;;;;;;;;;24.49;52.50;99792.28;5122291;28;19961;-85
2022/08/08 10:52:59;;;;;;;;;;;;;;;26.10;49.79;99794.25;5127470;28;19927;-83
2022/08/08 10:55:27;;;;;;;;;;;;;;;28.46;45.27;99788.72;5128614;28;19927;-86
2022/08/08 10:58:08;;;;;;;;;;;;;;;28.42;44.82;99807.19;5128001;27;19942;-83
2022/08/08 11:00:43;;;;;;;;;;;;;;;28.12;44.35;99803.78;5126493;28;19927;-81
2022/08/08 11:03:22;;;;;;;;;;;;;;;27.86;45.00;99790.19;5128894;27;19955;-83
2022/08/08 11:06:10;;;;;;;;;;;;;;;29.16;43.43;99785.00;5131931;27;20674;-83
2022/08/08 11:08:41;;;;;;;;;;;;;;;29.69;42.39;99782.22;5123290;27;20304;-81
2022/08/08 11:11:19;;;;;;;;;;;;;;;28.68;43.30;99781.09;5122300;27;19935;-81
2022/08/08 11:14:07;;;;;;;;;;;;;;;28.73;43.37;99778.09;5123181;27;19935;-82
2022/08/08 11:16:41;;;;;;;;;;;;;;;28.24;44.52;99783.59;5113945;27;19928;-82
2022/08/08 11:19:12;;;;;;;;;;;;;;;27.85;44.43;99792.16;5122940;27;19927;-81
2022/08/08 11:21:45;;;;;;;;;;;;;;;26.86;45.59;99787.13;5121074;27;20306;-81
2022/08/08 11:24:23;;;;;;;;;;;;;;;26.26;47.38;99794.53;5120211;27;19935;-82
2022/08/08 11:26:51;;;;;;;;;;;;;;;26.72;46.99;99795.69;5115124;28;19928;-81
2022/08/08 11:29:23;;;;;;;;;;;;;;;27.13;46.14;99802.44;5121227;27;19927;-82
2022/08/08 11:32:13;;;;;;;;;;;;;;;26.90;46.96;99798.38;5112556;27;20026;-82
2022/08/08 11:34:41;;;;;;;;;;;;;;;26.73;47.10;99799.25;5122036;27;19980;-81
2022/08/08 11:37:30;;;;;;;;;;;;;;;26.81;46.96;99803.94;5133373;27;19935;-80
2022/08/08 11:40:20;;;;;;;;;;;;;;;26.83;46.53;99798.88;5133538;27;20430;-80
2022/08/08 11:42:55;;;;;;;;;;;;;;;28.40;43.62;99792.03;5133731;27;19927;-82
2022/08/08 11:45:22;;;;;;;;;;;;;;;29.60;40.90;99787.91;5129380;27;19932;-82
2022/08/08 11:48:03;;;;;;;;;;;;;;;28.79;42.01;99778.66;5115170;27;19928;-81
2022/08/08 11:50:35;;;;;;;;;;;;;;;29.35;41.21;99781.63;5134048;27;19970;-81
2022/08/08 11:53:05;;;;;;;;;;;;;;;30.33;39.82;99786.75;5134279;27;19947;-82
2022/08/08 11:55:34;;;;;;;;;;;;;;;29.37;40.57;99787.63;5133959;27;20317;-82
2022/08/08 11:58:09;;;;;;;;;;;;;;;28.73;42.46;99790.00;5118225;27;20030;-81
2022/08/08 12:00:47;;;;;;;;;;;;;;;29.96;41.04;99783.38;5122336;27;19928;-81
2022/08/08 12:03:23;;;;;;;;;;;;;;;29.80;40.50;99780.53;5114613;28;20394;-80
2022/08/08 12:05:59;;;;;;;;;;;;;;;28.65;42.51;99784.56;5112347;27;19942;-80
2022/08/08 12:08:30;;;;;;;;;;;;;;;27.79;43.46;99787.13;5121929;27;19931;-80
2022/08/08 12:11:01;;;;;;;;;;;;;;;27.33;44.26;99783.44;5130022;27;19938;-79
2022/08/08 12:13:29;;;;;;;;;;;;;;;27.72;43.97;99781.31;5118617;27;20135;-79
2022/08/08 12:16:16;;;;;;;;;;;;;;;29.54;41.46;99767.06;5114141;28;19928;-81
2022/08/08 12:18:44;;;;;;;;;;;;;;;29.95;40.41;99776.19;5113946;28;20026;-81
2022/08/08 12:21:25;;;;;;;;;;;;;;;28.39;41.92;99780.13;5113686;27;19934;-80
2022/08/08 12:24:14;;;;;;;;;;;;;;;27.91;43.09;99781.66;5125789;27;19927;-81
2022/08/08 12:26:49;;;;;;;;;;;;;;;27.51;43.79;99773.81;5123462;27;20278;-81
2022/08/08 12:29:31;;;;;;;;;;;;;;;26.83;45.78;99778.69;5127806;27;19927;-81
2022/08/08 12:32:14;;;;;;;;;;;;;;;26.49;46.33;99784.03;5115294;27;19935;-83
2022/08/08 12:35:01;;;;;;;;;;;;;;;26.42;46.73;99791.22;5118977;27;19928;-81
2022/08/08 12:37:31;;;;;;;;;;;;;;;26.17;47.23;99788.22;5125077;27;19927;-80
2022/08/08 12:40:16;;;;;;;;;;;;;;;26.13;47.31;99773.41;5117810;27;19979;-81
2022/08/08 12:42:50;;;;;;;;;;;;;;;25.82;47.76;99784.69;5135391;27;19966;-80
2022/08/08 12:45:17;;;;;;;;;;;;;;;25.66;48.31;99785.19;5144434;27;19954;-80
2022/08/08 12:48:05;;;;;;;;;;;;;;;26.01;47.91;99778.84;5142405;27;20028;-81
2022/08/08 12:50:53;;;;;;;;;;;;;;;26.26;47.51;99780.72;5125855;27;19966;-81
2022/08/08 12:53:25;;;;;;;;;;;;;;;26.52;46.86;99783.41;5136642;27;20337;-80
2022/08/08 12:56:07;;;;;;;;;;;;;;;27.02;46.07;99779.06;5145847;27;19970;-81
2022/08/08 12:58:52;;;;;;;;;;;;;;;26.78;46.02;99780.50;5141441;27;19970;-81
2022/08/08 13:01:32;;;;;;;;;;;;;;;26.54;46.90;99778.34;5145645;27;19927;-83
2022/08/08 13:04:12;;;;;;;;;;;;;;;26.65;47.16;99770.47;5110535;27;20411;-82
2022/08/08 13:07:00;;;;;;;;;;;;;;;26.69;46.51;99782.50;5137199;27;19931;-81
2022/08/08 13:09:32;;;;;;;;;;;;;;;26.14;46.82;99786.13;5140012;27;20447;-81
2022/08/08 13:12:22;;;;;;;;;;;;;;;25.75;48.23;99787.97;5141671;27;19938;-81
2022/08/08 13:14:55;;;;;;;;;;;;;;;25.67;48.33;99783.22;5114235;27;20305;-81
2022/08/08 13:17:26;;;;;;;;;;;;;;;26.01;47.81;99781.59;5114502;27;20473;-82
2022/08/08 13:20:14;;;;;;;;;;;;;;;26.11;47.45;99784.81;5125566;27;19934;-81
2022/08/08 13:22:44;;;;;;;;;;;;;;;26.11;46.98;99778.47;5141208;27;19927;-80
2022/08/08 13:25:21;;;;;;;;;;;;;;;27.29;45.09;99782.47;5144509;27;19931;-82
2022/08/08 13:27:51;;;;;;;;;;;;;;;28.00;44.42;99789.88;5137488;27;19927;-80
2022/08/08 13:30:27;;;;;;;;;;;;;;;30.01;40.59;99780.34;5120798;27;19927;-80
2022/08/08 13:32:54;;;;;;;;;;;;;;;30.31;39.66;99786.31;5141291;27;19970;-81
2022/08/08 13:35:25;;;;;;;;;;;;;;;31.05;38.43;99783.75;5140433;27;19927;-84
2022/08/08 13:38:05;;;;;;;;;;;;;;;32.08;36.76;99780.72;5151150;27;19988;-83
2022/08/08 13:40:40;;;;;;;;;;;;;;;32.15;35.51;99783.63;5122683;27;19988;-83
2022/08/08 13:43:10;;;;;;;;;;;;;;;31.10;36.75;99783.47;5126795;27;19927;-84
2022/08/08 13:45:38;;;;;;;;;;;;;;;31.10;37.39;99786.25;5113834;27;19927;-81
2022/08/08 13:48:11;;;;;;;;;;;;;;;31.66;36.53;99789.84;5132293;27;19951;-82
2022/08/08 13:50:46;;;;;;;;;;;;;;;30.84;37.05;99788.81;5111595;27;19973;-81